»·PEaware :: WAT574 KCYS-KLBF

WAT574 :: KCYS-KLBF

FLIGHT INFORMATION

Flight Status: Arrived
Operator:
Walker Air Transport
More flights by this operator :: More flights under this callsign
Pilot: John R. (31973)
Aircraft: CESSNA 182 SKYLANE
(C182)
More flights by this aircraft type
Origin: KCYS Cheyenne
United States
Destination: KLBF North Platte Regl-Bird
United States
More flights between these airports :: More routes between these airports
Route: MOCTU V138 SNY V6 LBF
File this flight plan on PilotEdge
Remarks:
Altitude:
(Current/Filed)
9,000ft
Speed:
(Current/Filed)
120kts
Departed: 13-Mar-21 03:48 PM
Arrived: 13-Mar-21 05:36 PM
Distance/Time
Traveled:
186nm/1:48
Distance/Time
To Go:
Arrived

Flight Plot

Page will automatically refresh every two minutes.

Flight plan parsing failed; only flown route is shown


Map Options




Map Legend


Flown Route
Filed Route
Departure Airport
Arrival Airport
Navaid (VOR, NDB)
Fix

Horizontal Profiles

Position Reports

Time Latitude Longitude Heading Altitude Ground
Speed
13-Mar-21 15:30 41.152162 -104.817765 269 6159ft 0kts
13-Mar-21 15:31 41.152162 -104.817767 269 6159ft 0kts
13-Mar-21 15:32 41.152162 -104.817769 269 6159ft 0kts
13-Mar-21 15:33 41.152162 -104.817772 269 6159ft 0kts
13-Mar-21 15:34 41.152162 -104.817774 268 6159ft 0kts
13-Mar-21 15:35 41.152162 -104.817776 268 6159ft 0kts
13-Mar-21 15:36 41.152162 -104.817779 268 6159ft 0kts
13-Mar-21 15:37 41.152162 -104.817780 268 6159ft 0kts
13-Mar-21 15:38 41.152162 -104.817783 268 6159ft 0kts
13-Mar-21 15:39 41.152162 -104.817785 268 6159ft 0kts
13-Mar-21 15:40 41.152162 -104.817787 268 6159ft 0kts
13-Mar-21 15:41 41.152161 -104.817790 268 6159ft 0kts
13-Mar-21 15:42 41.152342 -104.818038 351 6159ft 5kts
13-Mar-21 15:43 41.154487 -104.819145 314 6159ft 12kts
13-Mar-21 15:44 41.155325 -104.820993 282 6159ft 0kts
13-Mar-21 15:45 41.156728 -104.820916 93 6159ft 3kts
13-Mar-21 15:46 41.156727 -104.820863 92 6159ft 0kts
13-Mar-21 15:47 41.155801 -104.798341 91 6629ft 80kts
13-Mar-21 15:48 41.161282 -104.769479 70 7446ft 82kts
13-Mar-21 15:49 41.167297 -104.739816 76 8205ft 89kts
13-Mar-21 15:50 41.172997 -104.706237 77 8976ft 96kts
13-Mar-21 15:51 41.180341 -104.662057 77 9003ft 136kts
13-Mar-21 15:52 41.188604 -104.612157 77 9000ft 137kts
13-Mar-21 15:53 41.196680 -104.563254 77 8999ft 134kts
13-Mar-21 15:54 41.196203 -104.513993 94 9000ft 133kts
13-Mar-21 15:55 41.193294 -104.464803 94 9000ft 133kts
13-Mar-21 15:56 41.190385 -104.415547 94 9000ft 133kts
13-Mar-21 15:57 41.187452 -104.366206 94 9000ft 133kts
13-Mar-21 15:58 41.184507 -104.317011 94 9000ft 133kts
13-Mar-21 15:59 41.181533 -104.267678 94 9000ft 134kts
13-Mar-21 16:00 41.178548 -104.218413 94 9000ft 134kts
13-Mar-21 16:01 41.175550 -104.169259 94 9000ft 134kts
13-Mar-21 16:02 41.172517 -104.119879 94 9000ft 134kts
13-Mar-21 16:03 41.169472 -104.070646 94 9000ft 134kts
13-Mar-21 16:04 41.166393 -104.021249 94 9001ft 134kts
13-Mar-21 16:05 41.163285 -103.971770 94 9000ft 134kts
13-Mar-21 16:06 41.160160 -103.922344 94 9000ft 134kts
13-Mar-21 16:07 41.157015 -103.872948 94 9000ft 134kts
13-Mar-21 16:08 41.153844 -103.823483 94 9000ft 134kts
13-Mar-21 16:09 41.150657 -103.774103 94 9000ft 134kts
13-Mar-21 16:10 41.147434 -103.724510 94 9000ft 134kts
13-Mar-21 16:11 41.144205 -103.675139 94 9000ft 134kts
13-Mar-21 16:12 41.140970 -103.626022 95 9000ft 133kts
13-Mar-21 16:13 41.137718 -103.576952 95 9000ft 133kts
13-Mar-21 16:14 41.134436 -103.527750 95 9000ft 133kts
13-Mar-21 16:15 41.131143 -103.478712 95 9000ft 133kts
13-Mar-21 16:16 41.127824 -103.429608 95 9000ft 133kts
13-Mar-21 16:17 41.124488 -103.380550 95 9000ft 133kts
13-Mar-21 16:18 41.121127 -103.331450 95 9000ft 133kts
13-Mar-21 16:19 41.117755 -103.282486 95 9000ft 133kts
13-Mar-21 16:20 41.114336 -103.233167 95 9000ft 134kts
13-Mar-21 16:21 41.110911 -103.184059 95 9000ft 134kts
13-Mar-21 16:22 41.107445 -103.134671 95 9000ft 134kts
13-Mar-21 16:23 41.103969 -103.085448 95 8999ft 134kts
13-Mar-21 16:24 41.100475 -103.036269 95 9000ft 134kts
13-Mar-21 16:25 41.096951 -102.986978 95 9000ft 134kts
13-Mar-21 16:26 41.095859 -102.937581 90 9000ft 134kts
13-Mar-21 16:27 41.095438 -102.886127 90 8630ft 146kts
13-Mar-21 16:28 41.094807 -102.834149 91 7907ft 138kts
13-Mar-21 16:29 41.094139 -102.783255 91 7198ft 137kts
13-Mar-21 16:30 41.093499 -102.736258 91 6992ft 117kts
13-Mar-21 16:31 41.092831 -102.688758 91 7005ft 134kts
13-Mar-21 16:32 41.092116 -102.639519 91 7001ft 132kts
13-Mar-21 16:33 41.091386 -102.590685 91 7000ft 132kts
13-Mar-21 16:34 41.090637 -102.541996 91 6999ft 132kts
13-Mar-21 16:35 41.089864 -102.493218 91 7000ft 132kts
13-Mar-21 16:36 41.089072 -102.444487 91 7000ft 132kts
13-Mar-21 16:37 41.088258 -102.395745 91 7000ft 132kts
13-Mar-21 16:38 41.087425 -102.347067 91 7000ft 132kts
13-Mar-21 16:40 41.086572 -102.298403 91 7000ft 132kts
13-Mar-21 16:41 41.085697 -102.249664 91 7000ft 132kts
13-Mar-21 16:42 41.084800 -102.200868 91 7000ft 132kts
13-Mar-21 16:43 41.083883 -102.152092 91 7000ft 132kts
13-Mar-21 16:44 41.082951 -102.103401 91 7000ft 132kts
13-Mar-21 16:45 41.081997 -102.054649 91 7000ft 132kts
13-Mar-21 16:46 41.081019 -102.005743 91 7000ft 132kts
13-Mar-21 16:47 41.080024 -101.956980 91 7000ft 132kts
13-Mar-21 16:48 41.079010 -101.908324 91 7000ft 132kts
13-Mar-21 16:49 41.077973 -101.859548 91 7001ft 132kts
13-Mar-21 16:50 41.076917 -101.810857 91 7000ft 132kts
13-Mar-21 16:51 41.075838 -101.762047 91 7000ft 132kts
13-Mar-21 16:52 41.074740 -101.713313 91 7000ft 132kts
13-Mar-21 16:53 41.073618 -101.664453 91 7000ft 132kts
13-Mar-21 16:54 41.072480 -101.615766 91 7000ft 132kts
13-Mar-21 16:55 41.071322 -101.567110 91 7000ft 132kts
13-Mar-21 16:56 41.070139 -101.518292 91 7000ft 132kts
13-Mar-21 16:57 41.068940 -101.469631 91 7000ft 132kts
13-Mar-21 16:58 41.067718 -101.420909 91 7000ft 132kts
13-Mar-21 16:59 41.066475 -101.372154 91 7000ft 132kts
13-Mar-21 16:59 41.065421 -101.331474 92 7000ft 132kts
13-Mar-21 17:00 41.064142 -101.282830 92 7000ft 132kts
13-Mar-21 17:02 41.062621 -101.225946 92 7000ft 132kts
13-Mar-21 17:03 41.061297 -101.177258 92 7000ft 132kts
13-Mar-21 17:03 41.060178 -101.136687 92 7000ft 132kts
13-Mar-21 17:04 41.058814 -101.087921 92 7000ft 132kts
13-Mar-21 17:06 41.057195 -101.030988 92 7000ft 132kts
13-Mar-21 17:06 41.056022 -100.990340 92 7000ft 132kts
13-Mar-21 17:07 41.054599 -100.941663 92 7000ft 132kts
13-Mar-21 17:08 41.049814 -100.893636 110 7000ft 132kts
13-Mar-21 17:09 41.037202 -100.847541 109 6329ft 126kts
13-Mar-21 17:10 41.025787 -100.803516 108 5510ft 126kts
13-Mar-21 17:11 41.014569 -100.760163 108 5011ft 119kts
13-Mar-21 17:12 41.003616 -100.718394 113 5001ft 119kts
13-Mar-21 17:13 40.987707 -100.680132 118 5000ft 118kts
13-Mar-21 17:14 40.971735 -100.641918 118 5000ft 118kts
13-Mar-21 17:15 40.955760 -100.603703 118 5000ft 118kts
13-Mar-21 17:16 40.939792 -100.565516 118 5000ft 118kts
13-Mar-21 17:17 40.923824 -100.527335 118 5000ft 118kts
13-Mar-21 17:18 40.907858 -100.489163 118 5000ft 118kts
13-Mar-21 17:19 40.904307 -100.450895 35 4992ft 116kts
13-Mar-21 17:20 40.931791 -100.430610 28 5000ft 110kts
13-Mar-21 17:21 40.958573 -100.411049 28 5000ft 109kts
13-Mar-21 17:22 40.985222 -100.391577 28 5000ft 109kts
13-Mar-21 17:23 41.006518 -100.366410 93 4998ft 108kts
13-Mar-21 17:24 40.984793 -100.363236 249 5000ft 108kts
13-Mar-21 17:25 40.987623 -100.402751 276 5006ft 109kts
13-Mar-21 17:26 40.990774 -100.442796 278 5003ft 109kts
13-Mar-21 17:27 41.008593 -100.458522 26 5067ft 106kts
13-Mar-21 17:28 41.032450 -100.472700 286 4876ft 113kts
13-Mar-21 17:29 41.041586 -100.510980 286 4943ft 108kts
13-Mar-21 17:30 41.053767 -100.549451 301 4723ft 120kts
13-Mar-21 17:31 41.073652 -100.586373 306 4291ft 132kts
13-Mar-21 17:32 41.094723 -100.621899 304 3677ft 115kts
13-Mar-21 17:33 41.112917 -100.655112 305 3086ft 101kts
13-Mar-21 17:34 41.125969 -100.679067 306 2780ft 64kts
13-Mar-21 17:35 41.131579 -100.689120 305 2779ft 19kts
13-Mar-21 17:36 41.131119 -100.693800 270 2779ft 16kts
13-Mar-21 17:37 41.132016 -100.697415 341 2779ft 8kts
13-Mar-21 17:38 41.132322 -100.698013 268 2779ft 0kts

Navigation Log

Ident Type
Flight plan parsing failed, navigation log unavailable